CFS3166 KOAK-KSMF
Flight info
| Callsign | CFS3166 |
|---|---|
| Flight time | 0h 27m |
| Altitude | 9000 |
| Route | NIMI5 OAK V6 SAC/N0288F100 |
| Aircraft | AT76/M-SDFGIRY/S |
Departure
| Time | 2026-05-07 22:22 |
|---|---|
| Airport | San Francisco Bay Oakland International Airport (KOAK) |
Arrival
| Time | 2026-05-07 22:50 |
|---|---|
| Airport | Sacramento International Airport (KSMF) |
| Time | Latitude | Longitude | Altitude | Speed | Heading |
|---|---|---|---|---|---|
| 2026-05-07 22:06 | 37.72049 | -122.21753 | 5 ft | 0 kts | 92° |
| 2026-05-07 22:18 | 37.72049 | -122.21750 | 5 ft | 8 kts | 91° |
| 2026-05-07 22:19 | 37.72017 | -122.21578 | 5 ft | 20 kts | 127° |
| 2026-05-07 22:19 | 37.71975 | -122.21515 | 5 ft | 0 kts | 131° |
| 2026-05-07 22:19 | 37.71963 | -122.21474 | 5 ft | 13 kts | 96° |
| 2026-05-07 22:20 | 37.72003 | -122.21357 | 5 ft | 17 kts | 77° |
| 2026-05-07 22:20 | 37.72007 | -122.21208 | 5 ft | 19 kts | 71° |
| 2026-05-07 22:20 | 37.72068 | -122.21003 | 11 ft | 25 kts | 67° |
| 2026-05-07 22:20 | 37.72127 | -122.20825 | 5 ft | 20 kts | 69° |
| 2026-05-07 22:21 | 37.72170 | -122.20674 | 5 ft | 17 kts | 70° |
| 2026-05-07 22:21 | 37.72231 | -122.20635 | 3 ft | 6 kts | 318° |
| 2026-05-07 22:21 | 37.72248 | -122.20669 | 3 ft | 4 kts | 294° |
| 2026-05-07 22:21 | 37.72346 | -122.20970 | 3 ft | 78 kts | 292° |
| 2026-05-07 22:22 | 37.72645 | -122.21867 | 85 ft | 134 kts | 291° |
| 2026-05-07 22:22 | 37.73006 | -122.23012 | 676 ft | 146 kts | 288° |
| 2026-05-07 22:22 | 37.73428 | -122.24298 | 1203 ft | 172 kts | 291° |
| 2026-05-07 22:22 | 37.74071 | -122.25638 | 1701 ft | 189 kts | 317° |
| 2026-05-07 22:23 | 37.75357 | -122.26174 | 2238 ft | 207 kts | 1° |
| 2026-05-07 22:23 | 37.76661 | -122.25487 | 2794 ft | 204 kts | 42° |
| 2026-05-07 22:23 | 37.77316 | -122.23960 | 3306 ft | 196 kts | 71° |
| 2026-05-07 22:23 | 37.77763 | -122.22357 | 3790 ft | 192 kts | 68° |
| 2026-05-07 22:24 | 37.78259 | -122.20780 | 4237 ft | 195 kts | 67° |
| 2026-05-07 22:24 | 37.78777 | -122.19307 | 4670 ft | 197 kts | 62° |
| 2026-05-07 22:24 | 37.79433 | -122.17796 | 5157 ft | 197 kts | 57° |
| 2026-05-07 22:24 | 37.80188 | -122.16348 | 5628 ft | 198 kts | 53° |
| 2026-05-07 22:25 | 37.81025 | -122.14957 | 6050 ft | 199 kts | 50° |
| 2026-05-07 22:25 | 37.81906 | -122.13610 | 6491 ft | 199 kts | 49° |
| 2026-05-07 22:25 | 37.82802 | -122.12265 | 6912 ft | 200 kts | 49° |
| 2026-05-07 22:25 | 37.83705 | -122.10924 | 7351 ft | 200 kts | 47° |
| 2026-05-07 22:26 | 37.84747 | -122.09730 | 7642 ft | 208 kts | 36° |
| 2026-05-07 22:26 | 37.85951 | -122.08569 | 7698 ft | 226 kts | 35° |
| 2026-05-07 22:26 | 37.87220 | -122.07352 | 7920 ft | 231 kts | 36° |
| 2026-05-07 22:26 | 37.88493 | -122.06113 | 8219 ft | 231 kts | 36° |
| 2026-05-07 22:27 | 37.89757 | -122.04856 | 8483 ft | 233 kts | 37° |
| 2026-05-07 22:27 | 37.91021 | -122.03565 | 8759 ft | 233 kts | 37° |
| 2026-05-07 22:27 | 37.92280 | -122.02272 | 9040 ft | 234 kts | 37° |
| 2026-05-07 22:27 | 37.93548 | -122.00968 | 9313 ft | 235 kts | 37° |
| 2026-05-07 22:28 | 37.94820 | -121.99665 | 9578 ft | 236 kts | 38° |
| 2026-05-07 22:28 | 37.96087 | -121.98341 | 9668 ft | 234 kts | 39° |
| 2026-05-07 22:28 | 37.97340 | -121.97010 | 9808 ft | 237 kts | 38° |
| 2026-05-07 22:28 | 37.98623 | -121.95669 | 10046 ft | 239 kts | 37° |
| 2026-05-07 22:29 | 37.99913 | -121.94342 | 10274 ft | 239 kts | 37° |
| 2026-05-07 22:29 | 38.01209 | -121.93003 | 10468 ft | 240 kts | 37° |
| 2026-05-07 22:29 | 38.02512 | -121.91680 | 10641 ft | 241 kts | 37° |
| 2026-05-07 22:29 | 38.03823 | -121.90346 | 10849 ft | 241 kts | 37° |
| 2026-05-07 22:30 | 38.05139 | -121.89007 | 10974 ft | 245 kts | 37° |
| 2026-05-07 22:30 | 38.06485 | -121.87639 | 11033 ft | 250 kts | 37° |
| 2026-05-07 22:30 | 38.07854 | -121.86239 | 11059 ft | 255 kts | 38° |
| 2026-05-07 22:30 | 38.09241 | -121.84796 | 11079 ft | 260 kts | 38° |
| 2026-05-07 22:31 | 38.10648 | -121.83331 | 11083 ft | 263 kts | 38° |
| 2026-05-07 22:31 | 38.12070 | -121.81846 | 11087 ft | 266 kts | 38° |
| 2026-05-07 22:31 | 38.13503 | -121.80350 | 11083 ft | 268 kts | 37° |
| 2026-05-07 22:31 | 38.14945 | -121.78849 | 11090 ft | 268 kts | 38° |
| 2026-05-07 22:32 | 38.16392 | -121.77354 | 11083 ft | 268 kts | 38° |
| 2026-05-07 22:32 | 38.17887 | -121.75956 | 11089 ft | 266 kts | 31° |
| 2026-05-07 22:32 | 38.19474 | -121.74746 | 11087 ft | 266 kts | 28° |
| 2026-05-07 22:32 | 38.21076 | -121.73574 | 11084 ft | 266 kts | 28° |
| 2026-05-07 22:33 | 38.22670 | -121.72385 | 11084 ft | 266 kts | 29° |
| 2026-05-07 22:33 | 38.24250 | -121.71148 | 11082 ft | 267 kts | 30° |
| 2026-05-07 22:33 | 38.25824 | -121.69901 | 11080 ft | 267 kts | 30° |
| 2026-05-07 22:33 | 38.27402 | -121.68656 | 11075 ft | 267 kts | 30° |
| 2026-05-07 22:34 | 38.28982 | -121.67407 | 11074 ft | 267 kts | 30° |
| 2026-05-07 22:34 | 38.30562 | -121.66164 | 11077 ft | 267 kts | 30° |
| 2026-05-07 22:34 | 38.32136 | -121.64918 | 11078 ft | 267 kts | 30° |
| 2026-05-07 22:34 | 38.33713 | -121.63667 | 11079 ft | 267 kts | 30° |
| 2026-05-07 22:35 | 38.35292 | -121.62419 | 11071 ft | 267 kts | 30° |
| 2026-05-07 22:35 | 38.36870 | -121.61169 | 11070 ft | 267 kts | 30° |
| 2026-05-07 22:35 | 38.38428 | -121.59935 | 11069 ft | 267 kts | 30° |
| 2026-05-07 22:35 | 38.40005 | -121.58684 | 11070 ft | 267 kts | 30° |
| 2026-05-07 22:36 | 38.41582 | -121.57435 | 11076 ft | 267 kts | 30° |
| 2026-05-07 22:36 | 38.43162 | -121.56184 | 11070 ft | 267 kts | 30° |
| 2026-05-07 22:36 | 38.44741 | -121.54938 | 11069 ft | 267 kts | 30° |
| 2026-05-07 22:36 | 38.46318 | -121.53690 | 11073 ft | 267 kts | 30° |
| 2026-05-07 22:37 | 38.47897 | -121.52443 | 11071 ft | 267 kts | 30° |
| 2026-05-07 22:37 | 38.49473 | -121.51197 | 11074 ft | 267 kts | 30° |
| 2026-05-07 22:37 | 38.51052 | -121.49951 | 11076 ft | 267 kts | 30° |
| 2026-05-07 22:37 | 38.52628 | -121.48701 | 11075 ft | 267 kts | 30° |
| 2026-05-07 22:38 | 38.54201 | -121.47450 | 10958 ft | 264 kts | 30° |
| 2026-05-07 22:38 | 38.55753 | -121.46199 | 10468 ft | 263 kts | 30° |
| 2026-05-07 22:38 | 38.57297 | -121.44957 | 9983 ft | 261 kts | 30° |
| 2026-05-07 22:38 | 38.58832 | -121.43730 | 9446 ft | 259 kts | 30° |
| 2026-05-07 22:39 | 38.60354 | -121.42516 | 8939 ft | 257 kts | 30° |
| 2026-05-07 22:39 | 38.61878 | -121.41362 | 8398 ft | 251 kts | 22° |
| 2026-05-07 22:39 | 38.63561 | -121.40931 | 7811 ft | 246 kts | 3° |
| 2026-05-07 22:39 | 38.65270 | -121.40763 | 7319 ft | 245 kts | 1° |
| 2026-05-07 22:40 | 38.66970 | -121.40639 | 6869 ft | 244 kts | 0° |
| 2026-05-07 22:40 | 38.68655 | -121.40543 | 6421 ft | 241 kts | 359° |
| 2026-05-07 22:40 | 38.70326 | -121.40564 | 5931 ft | 239 kts | 356° |
| 2026-05-07 22:40 | 38.71981 | -121.40647 | 5485 ft | 237 kts | 355° |
| 2026-05-07 22:41 | 38.73405 | -121.40739 | 5106 ft | 236 kts | 356° |
| 2026-05-07 22:41 | 38.75051 | -121.40855 | 4625 ft | 234 kts | 355° |
| 2026-05-07 22:41 | 38.76656 | -121.41008 | 4201 ft | 223 kts | 353° |
| 2026-05-07 22:41 | 38.78132 | -121.41236 | 4030 ft | 205 kts | 351° |
| 2026-05-07 22:42 | 38.79501 | -121.41495 | 3734 ft | 194 kts | 348° |
| 2026-05-07 22:42 | 38.80645 | -121.42312 | 3271 ft | 192 kts | 307° |
| 2026-05-07 22:42 | 38.81212 | -121.43750 | 3100 ft | 171 kts | 293° |
| 2026-05-07 22:42 | 38.81688 | -121.45128 | 2741 ft | 167 kts | 292° |
| 2026-05-07 22:43 | 38.82132 | -121.46456 | 2639 ft | 157 kts | 292° |
| 2026-05-07 22:43 | 38.82439 | -121.47763 | 2509 ft | 151 kts | 280° |
| 2026-05-07 22:43 | 38.82585 | -121.49094 | 2395 ft | 151 kts | 275° |
| 2026-05-07 22:43 | 38.82674 | -121.50425 | 2347 ft | 150 kts | 273° |
| 2026-05-07 22:44 | 38.82751 | -121.51759 | 2284 ft | 150 kts | 272° |
| 2026-05-07 22:44 | 38.82823 | -121.53099 | 2207 ft | 151 kts | 271° |
| 2026-05-07 22:44 | 38.82898 | -121.54453 | 2135 ft | 152 kts | 272° |
| 2026-05-07 22:44 | 38.82977 | -121.55795 | 2097 ft | 150 kts | 272° |
| 2026-05-07 22:45 | 38.83051 | -121.57112 | 2082 ft | 146 kts | 270° |
| 2026-05-07 22:45 | 38.83083 | -121.58397 | 2081 ft | 142 kts | 266° |
| 2026-05-07 22:45 | 38.82646 | -121.59431 | 2075 ft | 135 kts | 210° |
| 2026-05-07 22:45 | 38.81758 | -121.59712 | 2077 ft | 127 kts | 190° |
| 2026-05-07 22:46 | 38.80907 | -121.59872 | 2073 ft | 123 kts | 187° |
| 2026-05-07 22:46 | 38.80068 | -121.59968 | 2061 ft | 119 kts | 185° |
| 2026-05-07 22:46 | 38.79294 | -121.60078 | 1967 ft | 109 kts | 186° |
| 2026-05-07 22:46 | 38.78521 | -121.60116 | 1740 ft | 110 kts | 177° |
| 2026-05-07 22:47 | 38.77763 | -121.60077 | 1533 ft | 108 kts | 179° |
| 2026-05-07 22:47 | 38.77008 | -121.60049 | 1287 ft | 109 kts | 179° |
| 2026-05-07 22:47 | 38.76262 | -121.60049 | 1085 ft | 106 kts | 179° |
| 2026-05-07 22:47 | 38.75526 | -121.60029 | 934 ft | 108 kts | 180° |
| 2026-05-07 22:48 | 38.74782 | -121.60015 | 804 ft | 111 kts | 179° |
| 2026-05-07 22:48 | 38.73994 | -121.60011 | 777 ft | 114 kts | 181° |
| 2026-05-07 22:48 | 38.73198 | -121.60042 | 684 ft | 113 kts | 182° |
| 2026-05-07 22:48 | 38.72422 | -121.60080 | 500 ft | 111 kts | 181° |
| 2026-05-07 22:49 | 38.71643 | -121.60090 | 272 ft | 112 kts | 180° |
| 2026-05-07 22:49 | 38.70863 | -121.60105 | 97 ft | 112 kts | 180° |
| 2026-05-07 22:49 | 38.70106 | -121.60121 | 22 ft | 100 kts | 180° |
| 2026-05-07 22:49 | 38.69715 | -121.60127 | 18 ft | 51 kts | 181° |
| 2026-05-07 22:50 | 38.69444 | -121.60060 | 21 ft | 30 kts | 154° |
| 2026-05-07 22:50 | 38.69287 | -121.59949 | 21 ft | 22 kts | 150° |
| 2026-05-07 22:50 | 38.69163 | -121.59875 | 20 ft | 18 kts | 175° |
| 2026-05-07 22:50 | 38.69061 | -121.59841 | 21 ft | 14 kts | 117° |
| 2026-05-07 22:51 | 38.69054 | -121.59724 | 20 ft | 13 kts | 91° |
| 2026-05-07 22:51 | 38.69096 | -121.59693 | 20 ft | 8 kts | 352° |
| 2026-05-07 22:51 | 38.69100 | -121.59694 | 21 ft | 0 kts | 350° |